sensor_id;sensor_type;location;lat;lon;timestamp;P1;durP1;ratioP1;P2;durP2;ratioP2
15061;SDS011;7630;50.306;8.566;2023-08-06T00:01:26;13.87;;;12.73;;
15061;SDS011;7630;50.306;8.566;2023-08-06T00:05:27;14.73;;;13.43;;
15061;SDS011;7630;50.306;8.566;2023-08-06T00:09:28;16.67;;;15.17;;
15061;SDS011;7630;50.306;8.566;2023-08-06T00:13:29;15.50;;;14.20;;
15061;SDS011;7630;50.306;8.566;2023-08-06T00:17:30;15.60;;;14.27;;
15061;SDS011;7630;50.306;8.566;2023-08-06T00:21:31;16.03;;;14.47;;
15061;SDS011;7630;50.306;8.566;2023-08-06T00:25:32;16.57;;;15.10;;
15061;SDS011;7630;50.306;8.566;2023-08-06T00:29:33;17.67;;;16.07;;
15061;SDS011;7630;50.306;8.566;2023-08-06T00:33:34;17.17;;;15.87;;
15061;SDS011;7630;50.306;8.566;2023-08-06T00:37:36;19.53;;;17.93;;
15061;SDS011;7630;50.306;8.566;2023-08-06T00:41:37;17.30;;;15.60;;
15061;SDS011;7630;50.306;8.566;2023-08-06T00:45:40;15.30;;;13.87;;
15061;SDS011;7630;50.306;8.566;2023-08-06T00:49:41;14.47;;;13.20;;
15061;SDS011;7630;50.306;8.566;2023-08-06T00:53:43;16.70;;;15.20;;
15061;SDS011;7630;50.306;8.566;2023-08-06T00:57:44;19.00;;;17.47;;
15061;SDS011;7630;50.306;8.566;2023-08-06T01:01:45;18.87;;;17.53;;
15061;SDS011;7630;50.306;8.566;2023-08-06T01:05:46;18.77;;;17.13;;
15061;SDS011;7630;50.306;8.566;2023-08-06T01:09:57;16.33;;;14.83;;
15061;SDS011;7630;50.306;8.566;2023-08-06T01:14:13;19.23;;;17.50;;
15061;SDS011;7630;50.306;8.566;2023-08-06T01:18:19;19.87;;;18.13;;
15061;SDS011;7630;50.306;8.566;2023-08-06T01:22:20;18.60;;;17.30;;
15061;SDS011;7630;50.306;8.566;2023-08-06T01:26:27;20.70;;;18.97;;
15061;SDS011;7630;50.306;8.566;2023-08-06T01:30:31;19.63;;;18.13;;
15061;SDS011;7630;50.306;8.566;2023-08-06T01:34:36;21.03;;;19.43;;
15061;SDS011;7630;50.306;8.566;2023-08-06T01:38:39;21.93;;;20.03;;
15061;SDS011;7630;50.306;8.566;2023-08-06T01:42:40;20.30;;;18.70;;
15061;SDS011;7630;50.306;8.566;2023-08-06T01:46:41;20.77;;;19.00;;
15061;SDS011;7630;50.306;8.566;2023-08-06T01:50:43;23.83;;;21.83;;
15061;SDS011;7630;50.306;8.566;2023-08-06T01:54:44;22.70;;;21.00;;
15061;SDS011;7630;50.306;8.566;2023-08-06T01:58:45;20.50;;;18.90;;
15061;SDS011;7630;50.306;8.566;2023-08-06T02:02:46;22.97;;;21.07;;
15061;SDS011;7630;50.306;8.566;2023-08-06T02:06:47;22.63;;;20.83;;
15061;SDS011;7630;50.306;8.566;2023-08-06T02:10:48;22.53;;;20.50;;
15061;SDS011;7630;50.306;8.566;2023-08-06T02:14:50;23.07;;;21.07;;
15061;SDS011;7630;50.306;8.566;2023-08-06T02:18:51;23.00;;;21.20;;
15061;SDS011;7630;50.306;8.566;2023-08-06T02:22:52;22.57;;;20.77;;
15061;SDS011;7630;50.306;8.566;2023-08-06T02:26:53;25.27;;;22.83;;
15061;SDS011;7630;50.306;8.566;2023-08-06T02:30:56;24.70;;;22.50;;
15061;SDS011;7630;50.306;8.566;2023-08-06T02:34:57;23.87;;;21.80;;
15061;SDS011;7630;50.306;8.566;2023-08-06T02:38:58;20.70;;;18.93;;
15061;SDS011;7630;50.306;8.566;2023-08-06T02:43:00;19.20;;;17.50;;
15061;SDS011;7630;50.306;8.566;2023-08-06T02:47:01;22.10;;;20.40;;
15061;SDS011;7630;50.306;8.566;2023-08-06T02:51:02;22.70;;;20.70;;
15061;SDS011;7630;50.306;8.566;2023-08-06T02:55:03;22.40;;;20.57;;
15061;SDS011;7630;50.306;8.566;2023-08-06T02:59:05;25.10;;;22.90;;
15061;SDS011;7630;50.306;8.566;2023-08-06T03:03:06;23.57;;;21.67;;
15061;SDS011;7630;50.306;8.566;2023-08-06T03:07:07;23.30;;;21.30;;
15061;SDS011;7630;50.306;8.566;2023-08-06T03:11:09;23.43;;;21.37;;
15061;SDS011;7630;50.306;8.566;2023-08-06T03:15:10;23.90;;;21.80;;
15061;SDS011;7630;50.306;8.566;2023-08-06T03:19:11;24.13;;;22.13;;
15061;SDS011;7630;50.306;8.566;2023-08-06T03:23:12;24.47;;;22.37;;
15061;SDS011;7630;50.306;8.566;2023-08-06T03:27:13;21.43;;;19.57;;
15061;SDS011;7630;50.306;8.566;2023-08-06T03:31:14;22.47;;;20.57;;
15061;SDS011;7630;50.306;8.566;2023-08-06T03:35:15;20.67;;;18.87;;
15061;SDS011;7630;50.306;8.566;2023-08-06T03:39:16;19.53;;;17.93;;
15061;SDS011;7630;50.306;8.566;2023-08-06T03:43:17;20.73;;;18.30;;
15061;SDS011;7630;50.306;8.566;2023-08-06T03:47:19;17.80;;;16.13;;
15061;SDS011;7630;50.306;8.566;2023-08-06T03:51:20;18.47;;;16.03;;
15061;SDS011;7630;50.306;8.566;2023-08-06T03:55:21;18.03;;;16.37;;
15061;SDS011;7630;50.306;8.566;2023-08-06T03:59:22;18.87;;;17.13;;
15061;SDS011;7630;50.306;8.566;2023-08-06T04:03:23;17.87;;;16.27;;
15061;SDS011;7630;50.306;8.566;2023-08-06T04:07:25;17.33;;;15.70;;
15061;SDS011;7630;50.306;8.566;2023-08-06T04:11:26;16.80;;;15.33;;
15061;SDS011;7630;50.306;8.566;2023-08-06T04:15:27;19.23;;;17.43;;
15061;SDS011;7630;50.306;8.566;2023-08-06T04:19:28;16.13;;;14.63;;
15061;SDS011;7630;50.306;8.566;2023-08-06T04:23:29;15.60;;;14.40;;
15061;SDS011;7630;50.306;8.566;2023-08-06T04:27:31;14.73;;;13.43;;
15061;SDS011;7630;50.306;8.566;2023-08-06T04:31:32;14.20;;;12.80;;
15061;SDS011;7630;50.306;8.566;2023-08-06T04:35:33;14.60;;;13.30;;
15061;SDS011;7630;50.306;8.566;2023-08-06T04:39:35;15.17;;;13.97;;
15061;SDS011;7630;50.306;8.566;2023-08-06T04:43:36;13.43;;;12.33;;
15061;SDS011;7630;50.306;8.566;2023-08-06T04:47:37;13.63;;;12.37;;
15061;SDS011;7630;50.306;8.566;2023-08-06T04:51:38;13.00;;;11.90;;
15061;SDS011;7630;50.306;8.566;2023-08-06T04:55:40;15.87;;;14.67;;
15061;SDS011;7630;50.306;8.566;2023-08-06T04:59:41;12.70;;;11.47;;
15061;SDS011;7630;50.306;8.566;2023-08-06T05:03:42;12.10;;;11.00;;
15061;SDS011;7630;50.306;8.566;2023-08-06T05:07:45;12.87;;;11.77;;
15061;SDS011;7630;50.306;8.566;2023-08-06T05:11:48;11.70;;;10.33;;
15061;SDS011;7630;50.306;8.566;2023-08-06T05:15:55;10.63;;;9.53;;
15061;SDS011;7630;50.306;8.566;2023-08-06T05:19:57;8.83;;;7.97;;
15061;SDS011;7630;50.306;8.566;2023-08-06T05:23:58;8.77;;;8.07;;
15061;SDS011;7630;50.306;8.566;2023-08-06T05:28:00;11.07;;;6.30;;
15061;SDS011;7630;50.306;8.566;2023-08-06T05:32:02;8.93;;;6.27;;
15061;SDS011;7630;50.306;8.566;2023-08-06T05:36:04;6.53;;;5.93;;
15061;SDS011;7630;50.306;8.566;2023-08-06T05:40:06;6.60;;;6.00;;
15061;SDS011;7630;50.306;8.566;2023-08-06T05:44:08;6.90;;;6.20;;
15061;SDS011;7630;50.306;8.566;2023-08-06T05:48:09;6.70;;;5.30;;
15061;SDS011;7630;50.306;8.566;2023-08-06T05:52:10;5.37;;;4.30;;
15061;SDS011;7630;50.306;8.566;2023-08-06T05:56:11;4.70;;;4.30;;
15061;SDS011;7630;50.306;8.566;2023-08-06T06:00:13;4.43;;;4.03;;
15061;SDS011;7630;50.306;8.566;2023-08-06T06:04:14;3.67;;;3.37;;
15061;SDS011;7630;50.306;8.566;2023-08-06T06:08:16;2.53;;;2.33;;
15061;SDS011;7630;50.306;8.566;2023-08-06T06:12:17;2.33;;;2.07;;
15061;SDS011;7630;50.306;8.566;2023-08-06T06:16:18;2.60;;;2.40;;
15061;SDS011;7630;50.306;8.566;2023-08-06T06:20:20;3.70;;;2.47;;
15061;SDS011;7630;50.306;8.566;2023-08-06T06:24:21;2.97;;;2.17;;
15061;SDS011;7630;50.306;8.566;2023-08-06T06:28:22;2.07;;;1.97;;
15061;SDS011;7630;50.306;8.566;2023-08-06T06:32:23;2.10;;;1.97;;
15061;SDS011;7630;50.306;8.566;2023-08-06T06:36:26;1.23;;;1.23;;
15061;SDS011;7630;50.306;8.566;2023-08-06T06:40:27;2.07;;;1.83;;
15061;SDS011;7630;50.306;8.566;2023-08-06T06:44:28;1.37;;;1.27;;
15061;SDS011;7630;50.306;8.566;2023-08-06T06:48:31;1.27;;;1.13;;
15061;SDS011;7630;50.306;8.566;2023-08-06T06:52:33;2.20;;;1.37;;
15061;SDS011;7630;50.306;8.566;2023-08-06T06:56:34;1.43;;;1.20;;
15061;SDS011;7630;50.306;8.566;2023-08-06T07:00:36;1.33;;;1.23;;
15061;SDS011;7630;50.306;8.566;2023-08-06T07:04:37;2.00;;;1.40;;
15061;SDS011;7630;50.306;8.566;2023-08-06T07:08:38;0.80;;;0.80;;
15061;SDS011;7630;50.306;8.566;2023-08-06T07:12:40;1.37;;;0.70;;
15061;SDS011;7630;50.306;8.566;2023-08-06T07:16:41;1.23;;;1.23;;
15061;SDS011;7630;50.306;8.566;2023-08-06T07:20:42;2.00;;;1.17;;
15061;SDS011;7630;50.306;8.566;2023-08-06T07:24:47;1.17;;;1.07;;
15061;SDS011;7630;50.306;8.566;2023-08-06T07:28:48;1.20;;;1.10;;
15061;SDS011;7630;50.306;8.566;2023-08-06T07:32:50;1.33;;;0.80;;
15061;SDS011;7630;50.306;8.566;2023-08-06T07:36:51;0.80;;;0.80;;
15061;SDS011;7630;50.306;8.566;2023-08-06T07:40:52;0.37;;;0.37;;
15061;SDS011;7630;50.306;8.566;2023-08-06T07:44:54;0.30;;;0.30;;
15061;SDS011;7630;50.306;8.566;2023-08-06T07:48:56;0.70;;;0.53;;
15061;SDS011;7630;50.306;8.566;2023-08-06T07:52:57;0.80;;;0.80;;
15061;SDS011;7630;50.306;8.566;2023-08-06T07:56:59;0.40;;;0.40;;
15061;SDS011;7630;50.306;8.566;2023-08-06T08:01:00;0.50;;;0.50;;
15061;SDS011;7630;50.306;8.566;2023-08-06T08:05:03;0.30;;;0.27;;
15061;SDS011;7630;50.306;8.566;2023-08-06T08:09:04;0.50;;;0.50;;
15061;SDS011;7630;50.306;8.566;2023-08-06T08:13:05;0.90;;;0.90;;
15061;SDS011;7630;50.306;8.566;2023-08-06T08:17:07;0.67;;;0.67;;
15061;SDS011;7630;50.306;8.566;2023-08-06T08:21:08;1.30;;;0.70;;
15061;SDS011;7630;50.306;8.566;2023-08-06T08:25:09;0.70;;;0.67;;
15061;SDS011;7630;50.306;8.566;2023-08-06T08:29:10;1.20;;;1.10;;
15061;SDS011;7630;50.306;8.566;2023-08-06T08:33:11;0.93;;;0.93;;
15061;SDS011;7630;50.306;8.566;2023-08-06T08:37:13;0.70;;;0.70;;
15061;SDS011;7630;50.306;8.566;2023-08-06T08:41:15;0.70;;;0.70;;
15061;SDS011;7630;50.306;8.566;2023-08-06T08:45:16;0.83;;;0.83;;
15061;SDS011;7630;50.306;8.566;2023-08-06T08:49:21;2.30;;;0.80;;
15061;SDS011;7630;50.306;8.566;2023-08-06T08:53:24;0.73;;;0.73;;
15061;SDS011;7630;50.306;8.566;2023-08-06T08:57:27;0.90;;;0.90;;
15061;SDS011;7630;50.306;8.566;2023-08-06T09:01:28;0.60;;;0.60;;
15061;SDS011;7630;50.306;8.566;2023-08-06T09:05:30;0.60;;;0.60;;
15061;SDS011;7630;50.306;8.566;2023-08-06T09:09:33;0.83;;;0.77;;
15061;SDS011;7630;50.306;8.566;2023-08-06T09:13:38;2.23;;;0.90;;
15061;SDS011;7630;50.306;8.566;2023-08-06T09:17:39;1.13;;;1.13;;
15061;SDS011;7630;50.306;8.566;2023-08-06T09:21:41;2.20;;;0.80;;
15061;SDS011;7630;50.306;8.566;2023-08-06T09:25:43;0.60;;;0.60;;
15061;SDS011;7630;50.306;8.566;2023-08-06T09:29:45;0.70;;;0.70;;
15061;SDS011;7630;50.306;8.566;2023-08-06T09:33:46;0.70;;;0.70;;
15061;SDS011;7630;50.306;8.566;2023-08-06T09:37:49;0.93;;;0.93;;
15061;SDS011;7630;50.306;8.566;2023-08-06T09:41:52;0.87;;;0.87;;
15061;SDS011;7630;50.306;8.566;2023-08-06T09:45:58;0.40;;;0.40;;
15061;SDS011;7630;50.306;8.566;2023-08-06T09:49:59;0.60;;;0.60;;
15061;SDS011;7630;50.306;8.566;2023-08-06T09:54:00;1.03;;;0.70;;
15061;SDS011;7630;50.306;8.566;2023-08-06T09:58:06;0.63;;;0.50;;
15061;SDS011;7630;50.306;8.566;2023-08-06T10:02:09;2.23;;;0.60;;
15061;SDS011;7630;50.306;8.566;2023-08-06T10:06:12;1.33;;;0.50;;
15061;SDS011;7630;50.306;8.566;2023-08-06T10:10:14;0.97;;;0.70;;
15061;SDS011;7630;50.306;8.566;2023-08-06T10:14:20;1.43;;;0.60;;
15061;SDS011;7630;50.306;8.566;2023-08-06T10:18:29;0.50;;;0.50;;
15061;SDS011;7630;50.306;8.566;2023-08-06T10:22:30;0.80;;;0.80;;
15061;SDS011;7630;50.306;8.566;2023-08-06T10:26:33;2.87;;;0.90;;
15061;SDS011;7630;50.306;8.566;2023-08-06T10:30:41;1.10;;;1.00;;
15061;SDS011;7630;50.306;8.566;2023-08-06T10:34:55;0.60;;;0.60;;
15061;SDS011;7630;50.306;8.566;2023-08-06T10:39:02;0.73;;;0.73;;
15061;SDS011;7630;50.306;8.566;2023-08-06T10:43:05;1.10;;;1.00;;
15061;SDS011;7630;50.306;8.566;2023-08-06T10:47:26;1.13;;;1.13;;
15061;SDS011;7630;50.306;8.566;2023-08-06T10:51:28;2.00;;;0.73;;
15061;SDS011;7630;50.306;8.566;2023-08-06T10:55:29;0.40;;;0.40;;
15061;SDS011;7630;50.306;8.566;2023-08-06T10:59:30;0.60;;;0.60;;
15061;SDS011;7630;50.306;8.566;2023-08-06T11:03:32;0.40;;;0.40;;
15061;SDS011;7630;50.306;8.566;2023-08-06T11:07:35;0.60;;;0.60;;
15061;SDS011;7630;50.306;8.566;2023-08-06T11:11:37;1.57;;;0.70;;
15061;SDS011;7630;50.306;8.566;2023-08-06T11:15:38;1.20;;;1.10;;
15061;SDS011;7630;50.306;8.566;2023-08-06T11:19:40;0.50;;;0.50;;
15061;SDS011;7630;50.306;8.566;2023-08-06T11:23:42;0.40;;;0.40;;
15061;SDS011;7630;50.306;8.566;2023-08-06T11:27:43;0.80;;;0.80;;
15061;SDS011;7630;50.306;8.566;2023-08-06T11:31:45;1.20;;;0.77;;
15061;SDS011;7630;50.306;8.566;2023-08-06T11:35:47;0.70;;;0.70;;
15061;SDS011;7630;50.306;8.566;2023-08-06T11:39:48;1.40;;;1.10;;
15061;SDS011;7630;50.306;8.566;2023-08-06T11:43:50;2.03;;;0.90;;
15061;SDS011;7630;50.306;8.566;2023-08-06T11:47:53;1.10;;;0.40;;
15061;SDS011;7630;50.306;8.566;2023-08-06T11:51:54;1.97;;;1.33;;
15061;SDS011;7630;50.306;8.566;2023-08-06T11:55:55;1.70;;;0.73;;
15061;SDS011;7630;50.306;8.566;2023-08-06T11:59:56;0.70;;;0.40;;
15061;SDS011;7630;50.306;8.566;2023-08-06T12:03:58;0.83;;;0.80;;
15061;SDS011;7630;50.306;8.566;2023-08-06T12:08:01;1.77;;;0.60;;
15061;SDS011;7630;50.306;8.566;2023-08-06T12:12:04;0.60;;;0.60;;
15061;SDS011;7630;50.306;8.566;2023-08-06T12:16:05;0.50;;;0.50;;
15061;SDS011;7630;50.306;8.566;2023-08-06T12:20:08;1.10;;;1.10;;
15061;SDS011;7630;50.306;8.566;2023-08-06T12:24:10;2.37;;;1.03;;
15061;SDS011;7630;50.306;8.566;2023-08-06T12:28:12;1.40;;;0.93;;
15061;SDS011;7630;50.306;8.566;2023-08-06T12:32:13;1.33;;;1.03;;
15061;SDS011;7630;50.306;8.566;2023-08-06T12:36:15;1.77;;;1.67;;
15061;SDS011;7630;50.306;8.566;2023-08-06T12:40:16;2.30;;;1.37;;
15061;SDS011;7630;50.306;8.566;2023-08-06T12:44:19;2.43;;;2.13;;
15061;SDS011;7630;50.306;8.566;2023-08-06T12:48:20;1.47;;;1.47;;
15061;SDS011;7630;50.306;8.566;2023-08-06T12:52:21;2.50;;;1.50;;
15061;SDS011;7630;50.306;8.566;2023-08-06T12:56:23;0.93;;;0.93;;
15061;SDS011;7630;50.306;8.566;2023-08-06T13:00:24;1.57;;;1.03;;
15061;SDS011;7630;50.306;8.566;2023-08-06T13:04:26;5.20;;;4.70;;
15061;SDS011;7630;50.306;8.566;2023-08-06T13:08:28;4.00;;;3.23;;
15061;SDS011;7630;50.306;8.566;2023-08-06T13:12:29;5.80;;;5.33;;
15061;SDS011;7630;50.306;8.566;2023-08-06T13:16:31;4.07;;;2.90;;
15061;SDS011;7630;50.306;8.566;2023-08-06T13:20:33;4.63;;;4.23;;
15061;SDS011;7630;50.306;8.566;2023-08-06T13:24:34;1.53;;;1.43;;
15061;SDS011;7630;50.306;8.566;2023-08-06T13:28:35;2.30;;;2.10;;
15061;SDS011;7630;50.306;8.566;2023-08-06T13:32:36;1.80;;;1.70;;
15061;SDS011;7630;50.306;8.566;2023-08-06T13:36:37;1.60;;;1.50;;
15061;SDS011;7630;50.306;8.566;2023-08-06T13:40:39;2.10;;;2.00;;
15061;SDS011;7630;50.306;8.566;2023-08-06T13:44:40;2.70;;;2.10;;
15061;SDS011;7630;50.306;8.566;2023-08-06T13:48:42;1.87;;;1.73;;
15061;SDS011;7630;50.306;8.566;2023-08-06T13:52:44;1.73;;;1.63;;
15061;SDS011;7630;50.306;8.566;2023-08-06T13:56:45;2.30;;;1.60;;
15061;SDS011;7630;50.306;8.566;2023-08-06T14:00:46;2.13;;;1.67;;
15061;SDS011;7630;50.306;8.566;2023-08-06T14:04:47;1.60;;;1.50;;
15061;SDS011;7630;50.306;8.566;2023-08-06T14:08:49;1.80;;;1.70;;
15061;SDS011;7630;50.306;8.566;2023-08-06T14:12:50;1.70;;;1.13;;
15061;SDS011;7630;50.306;8.566;2023-08-06T14:16:53;1.40;;;1.30;;
15061;SDS011;7630;50.306;8.566;2023-08-06T14:20:56;1.10;;;1.10;;
15061;SDS011;7630;50.306;8.566;2023-08-06T14:24:58;1.67;;;1.57;;
15061;SDS011;7630;50.306;8.566;2023-08-06T14:29:00;3.87;;;2.97;;
15061;SDS011;7630;50.306;8.566;2023-08-06T14:33:01;1.33;;;1.20;;
15061;SDS011;7630;50.306;8.566;2023-08-06T14:37:05;1.40;;;1.30;;
15061;SDS011;7630;50.306;8.566;2023-08-06T14:41:06;0.77;;;0.70;;
15061;SDS011;7630;50.306;8.566;2023-08-06T14:45:08;0.77;;;0.77;;
15061;SDS011;7630;50.306;8.566;2023-08-06T14:49:10;1.20;;;1.10;;
15061;SDS011;7630;50.306;8.566;2023-08-06T14:53:11;0.97;;;0.97;;
15061;SDS011;7630;50.306;8.566;2023-08-06T14:57:13;0.90;;;0.90;;
15061;SDS011;7630;50.306;8.566;2023-08-06T15:01:15;1.00;;;1.00;;
15061;SDS011;7630;50.306;8.566;2023-08-06T15:05:16;1.00;;;1.00;;
15061;SDS011;7630;50.306;8.566;2023-08-06T15:09:17;2.33;;;2.17;;
15061;SDS011;7630;50.306;8.566;2023-08-06T15:13:18;2.10;;;2.00;;
15061;SDS011;7630;50.306;8.566;2023-08-06T15:17:20;1.30;;;1.20;;
15061;SDS011;7630;50.306;8.566;2023-08-06T15:21:21;1.57;;;1.47;;
15061;SDS011;7630;50.306;8.566;2023-08-06T15:25:22;1.70;;;1.60;;
15061;SDS011;7630;50.306;8.566;2023-08-06T15:29:24;1.50;;;1.40;;
15061;SDS011;7630;50.306;8.566;2023-08-06T15:33:25;1.80;;;1.70;;
15061;SDS011;7630;50.306;8.566;2023-08-06T15:37:26;2.97;;;1.90;;
15061;SDS011;7630;50.306;8.566;2023-08-06T15:41:28;1.87;;;1.77;;
15061;SDS011;7630;50.306;8.566;2023-08-06T15:45:29;1.93;;;1.83;;
15061;SDS011;7630;50.306;8.566;2023-08-06T15:49:30;2.23;;;2.03;;
15061;SDS011;7630;50.306;8.566;2023-08-06T15:53:32;2.40;;;1.60;;
15061;SDS011;7630;50.306;8.566;2023-08-06T15:57:34;1.97;;;1.80;;
15061;SDS011;7630;50.306;8.566;2023-08-06T16:01:36;4.33;;;3.93;;
15061;SDS011;7630;50.306;8.566;2023-08-06T16:05:37;2.27;;;1.93;;
15061;SDS011;7630;50.306;8.566;2023-08-06T16:09:38;2.60;;;2.40;;
15061;SDS011;7630;50.306;8.566;2023-08-06T16:13:39;2.17;;;2.03;;
15061;SDS011;7630;50.306;8.566;2023-08-06T16:17:40;5.20;;;2.93;;
15061;SDS011;7630;50.306;8.566;2023-08-06T16:21:41;2.47;;;2.23;;
15061;SDS011;7630;50.306;8.566;2023-08-06T16:25:42;1.97;;;1.87;;
15061;SDS011;7630;50.306;8.566;2023-08-06T16:29:46;1.70;;;1.60;;
15061;SDS011;7630;50.306;8.566;2023-08-06T16:33:49;1.77;;;1.67;;
15061;SDS011;7630;50.306;8.566;2023-08-06T16:37:50;1.50;;;1.40;;
15061;SDS011;7630;50.306;8.566;2023-08-06T16:41:51;0.83;;;0.83;;
15061;SDS011;7630;50.306;8.566;2023-08-06T16:45:53;3.10;;;2.43;;
15061;SDS011;7630;50.306;8.566;2023-08-06T16:49:57;1.97;;;1.87;;
15061;SDS011;7630;50.306;8.566;2023-08-06T16:53:58;3.03;;;1.57;;
15061;SDS011;7630;50.306;8.566;2023-08-06T16:57:59;1.27;;;1.17;;
15061;SDS011;7630;50.306;8.566;2023-08-06T17:02:00;1.30;;;1.20;;
15061;SDS011;7630;50.306;8.566;2023-08-06T17:06:01;1.27;;;1.17;;
15061;SDS011;7630;50.306;8.566;2023-08-06T17:10:03;1.00;;;1.00;;
15061;SDS011;7630;50.306;8.566;2023-08-06T17:14:05;1.93;;;1.20;;
15061;SDS011;7630;50.306;8.566;2023-08-06T17:18:06;0.70;;;0.70;;
15061;SDS011;7630;50.306;8.566;2023-08-06T17:22:09;1.03;;;1.00;;
15061;SDS011;7630;50.306;8.566;2023-08-06T17:26:11;1.20;;;1.10;;
15061;SDS011;7630;50.306;8.566;2023-08-06T17:30:12;1.40;;;1.30;;
15061;SDS011;7630;50.306;8.566;2023-08-06T17:34:13;1.83;;;1.33;;
15061;SDS011;7630;50.306;8.566;2023-08-06T17:38:14;1.83;;;1.73;;
15061;SDS011;7630;50.306;8.566;2023-08-06T17:42:15;1.13;;;1.13;;
15061;SDS011;7630;50.306;8.566;2023-08-06T17:46:16;1.63;;;1.50;;
15061;SDS011;7630;50.306;8.566;2023-08-06T17:50:17;1.10;;;1.10;;
15061;SDS011;7630;50.306;8.566;2023-08-06T17:54:19;1.63;;;1.30;;
15061;SDS011;7630;50.306;8.566;2023-08-06T17:58:20;2.27;;;2.07;;
15061;SDS011;7630;50.306;8.566;2023-08-06T18:02:21;1.37;;;1.23;;
15061;SDS011;7630;50.306;8.566;2023-08-06T18:06:22;1.77;;;1.03;;
15061;SDS011;7630;50.306;8.566;2023-08-06T18:10:24;1.37;;;0.87;;
15061;SDS011;7630;50.306;8.566;2023-08-06T18:14:25;1.37;;;1.27;;
15061;SDS011;7630;50.306;8.566;2023-08-06T18:18:26;3.93;;;1.70;;
15061;SDS011;7630;50.306;8.566;2023-08-06T18:22:28;1.70;;;1.60;;
15061;SDS011;7630;50.306;8.566;2023-08-06T18:26:29;1.50;;;1.43;;
15061;SDS011;7630;50.306;8.566;2023-08-06T18:30:31;3.40;;;1.90;;
15061;SDS011;7630;50.306;8.566;2023-08-06T18:34:34;1.70;;;1.60;;
15061;SDS011;7630;50.306;8.566;2023-08-06T18:38:35;1.77;;;1.67;;
15061;SDS011;7630;50.306;8.566;2023-08-06T18:42:36;1.97;;;1.87;;
15061;SDS011;7630;50.306;8.566;2023-08-06T18:46:41;2.50;;;2.00;;
15061;SDS011;7630;50.306;8.566;2023-08-06T18:50:42;3.23;;;2.10;;
15061;SDS011;7630;50.306;8.566;2023-08-06T18:54:44;2.10;;;1.90;;
15061;SDS011;7630;50.306;8.566;2023-08-06T18:58:45;5.45;;;2.55;;
15061;SDS011;7630;50.306;8.566;2023-08-06T19:02:46;7.30;;;2.37;;
15061;SDS011;7630;50.306;8.566;2023-08-06T19:06:47;4.07;;;2.20;;
15061;SDS011;7630;50.306;8.566;2023-08-06T19:10:48;2.30;;;1.60;;
15061;SDS011;7630;50.306;8.566;2023-08-06T19:14:49;1.03;;;0.97;;
15061;SDS011;7630;50.306;8.566;2023-08-06T19:18:50;1.13;;;1.03;;
15061;SDS011;7630;50.306;8.566;2023-08-06T19:22:52;1.87;;;1.40;;
15061;SDS011;7630;50.306;8.566;2023-08-06T19:26:53;1.00;;;1.00;;
15061;SDS011;7630;50.306;8.566;2023-08-06T19:30:54;1.20;;;1.10;;
15061;SDS011;7630;50.306;8.566;2023-08-06T19:34:56;1.00;;;1.00;;
15061;SDS011;7630;50.306;8.566;2023-08-06T19:38:57;4.87;;;2.10;;
15061;SDS011;7630;50.306;8.566;2023-08-06T19:42:58;2.10;;;2.00;;
15061;SDS011;7630;50.306;8.566;2023-08-06T19:46:59;2.83;;;2.63;;
15061;SDS011;7630;50.306;8.566;2023-08-06T19:51:00;5.13;;;3.43;;
15061;SDS011;7630;50.306;8.566;2023-08-06T19:55:02;3.17;;;2.97;;
15061;SDS011;7630;50.306;8.566;2023-08-06T19:59:04;3.83;;;3.43;;
15061;SDS011;7630;50.306;8.566;2023-08-06T20:03:06;3.27;;;3.07;;
15061;SDS011;7630;50.306;8.566;2023-08-06T20:07:09;4.27;;;3.20;;
15061;SDS011;7630;50.306;8.566;2023-08-06T20:11:10;2.83;;;2.63;;
15061;SDS011;7630;50.306;8.566;2023-08-06T20:15:11;3.00;;;2.73;;
15061;SDS011;7630;50.306;8.566;2023-08-06T20:19:12;3.10;;;2.90;;
15061;SDS011;7630;50.306;8.566;2023-08-06T20:23:14;3.80;;;3.40;;
15061;SDS011;7630;50.306;8.566;2023-08-06T20:27:15;3.27;;;3.07;;
15061;SDS011;7630;50.306;8.566;2023-08-06T20:31:16;3.60;;;3.40;;
15061;SDS011;7630;50.306;8.566;2023-08-06T20:35:17;4.73;;;4.33;;
15061;SDS011;7630;50.306;8.566;2023-08-06T20:39:19;4.27;;;3.93;;
15061;SDS011;7630;50.306;8.566;2023-08-06T20:43:20;3.93;;;3.67;;
15061;SDS011;7630;50.306;8.566;2023-08-06T20:47:22;3.30;;;3.00;;
15061;SDS011;7630;50.306;8.566;2023-08-06T20:51:23;3.03;;;2.83;;
15061;SDS011;7630;50.306;8.566;2023-08-06T20:55:25;4.27;;;3.97;;
15061;SDS011;7630;50.306;8.566;2023-08-06T20:59:27;5.87;;;4.63;;
15061;SDS011;7630;50.306;8.566;2023-08-06T21:03:29;4.83;;;4.40;;
15061;SDS011;7630;50.306;8.566;2023-08-06T21:07:31;5.50;;;5.10;;
15061;SDS011;7630;50.306;8.566;2023-08-06T21:11:32;6.37;;;5.97;;
15061;SDS011;7630;50.306;8.566;2023-08-06T21:15:34;7.60;;;6.97;;
15061;SDS011;7630;50.306;8.566;2023-08-06T21:19:36;8.77;;;7.90;;
15061;SDS011;7630;50.306;8.566;2023-08-06T21:23:38;9.93;;;9.03;;
15061;SDS011;7630;50.306;8.566;2023-08-06T21:27:40;9.93;;;8.57;;
15061;SDS011;7630;50.306;8.566;2023-08-06T21:31:43;9.53;;;8.73;;
15061;SDS011;7630;50.306;8.566;2023-08-06T21:35:44;10.00;;;9.00;;
15061;SDS011;7630;50.306;8.566;2023-08-06T21:39:45;9.73;;;8.83;;
15061;SDS011;7630;50.306;8.566;2023-08-06T21:43:47;10.07;;;9.20;;
15061;SDS011;7630;50.306;8.566;2023-08-06T21:47:49;9.47;;;8.67;;
15061;SDS011;7630;50.306;8.566;2023-08-06T21:51:50;7.83;;;7.13;;
15061;SDS011;7630;50.306;8.566;2023-08-06T21:55:55;9.50;;;8.33;;
15061;SDS011;7630;50.306;8.566;2023-08-06T22:00:03;9.30;;;8.30;;
15061;SDS011;7630;50.306;8.566;2023-08-06T22:04:05;7.67;;;7.07;;
15061;SDS011;7630;50.306;8.566;2023-08-06T22:08:06;9.70;;;8.83;;
15061;SDS011;7630;50.306;8.566;2023-08-06T22:12:07;8.73;;;7.97;;
15061;SDS011;7630;50.306;8.566;2023-08-06T22:16:09;9.80;;;6.63;;
15061;SDS011;7630;50.306;8.566;2023-08-06T22:20:10;7.53;;;5.97;;
15061;SDS011;7630;50.306;8.566;2023-08-06T22:24:11;7.03;;;6.33;;
15061;SDS011;7630;50.306;8.566;2023-08-06T22:28:13;7.30;;;6.40;;
15061;SDS011;7630;50.306;8.566;2023-08-06T22:32:14;8.60;;;7.37;;
15061;SDS011;7630;50.306;8.566;2023-08-06T22:36:15;8.47;;;6.93;;
15061;SDS011;7630;50.306;8.566;2023-08-06T22:40:17;8.37;;;7.60;;
15061;SDS011;7630;50.306;8.566;2023-08-06T22:44:18;8.70;;;7.87;;
15061;SDS011;7630;50.306;8.566;2023-08-06T22:48:19;9.20;;;8.30;;
15061;SDS011;7630;50.306;8.566;2023-08-06T22:52:21;9.80;;;8.10;;
15061;SDS011;7630;50.306;8.566;2023-08-06T22:56:22;8.37;;;6.33;;
15061;SDS011;7630;50.306;8.566;2023-08-06T23:00:23;7.33;;;6.73;;
15061;SDS011;7630;50.306;8.566;2023-08-06T23:04:24;7.00;;;6.17;;
15061;SDS011;7630;50.306;8.566;2023-08-06T23:08:26;5.80;;;5.07;;
15061;SDS011;7630;50.306;8.566;2023-08-06T23:12:27;6.40;;;4.53;;
15061;SDS011;7630;50.306;8.566;2023-08-06T23:16:29;7.60;;;4.97;;
15061;SDS011;7630;50.306;8.566;2023-08-06T23:20:30;4.43;;;4.10;;
15061;SDS011;7630;50.306;8.566;2023-08-06T23:24:31;4.13;;;3.37;;
15061;SDS011;7630;50.306;8.566;2023-08-06T23:28:32;4.07;;;2.80;;
15061;SDS011;7630;50.306;8.566;2023-08-06T23:32:33;3.70;;;3.40;;
15061;SDS011;7630;50.306;8.566;2023-08-06T23:36:35;3.27;;;2.93;;
15061;SDS011;7630;50.306;8.566;2023-08-06T23:40:36;4.20;;;3.80;;
15061;SDS011;7630;50.306;8.566;2023-08-06T23:44:37;7.87;;;3.33;;
15061;SDS011;7630;50.306;8.566;2023-08-06T23:48:38;3.10;;;2.80;;
15061;SDS011;7630;50.306;8.566;2023-08-06T23:52:39;6.90;;;3.57;;
15061;SDS011;7630;50.306;8.566;2023-08-06T23:56:40;4.10;;;3.10;;
